Latest Weather Observations for Browse Island

IDW60801

Issued at 10:35 am WST Thursday 28 August 2014 (issued every 30 minutes, with the page automatically refreshed every 10 minutes)

About weather observations | Map of weather stations | Latest weather observations for WA | Other Formats
Station Details ID: 200784 Name: BROWSE ISLAND Lat: -14.11 Lon: 123.55 Height: 3.7 m
Data from the previous 72 hours. | See also: Recent months for locations in Western Australia
Date/Time
WST
Temp
°C
App
Temp
°C
Dew
Point
Rel
Hum
%
Delta-T
°C
Wind Press
QNH
hPa
Press
MSL
hPa
Rain
since 9 am
mm
Dir
 
Spd
km/h
Gust
km/h
Spd
kts
Gust
kts
28/10:30am 26.0 - - - - E 17 20 9 11 1015.0 - -
28/10:00am 26.4 - - - - ESE 15 17 8 9 1015.0 1015.6 -
28/09:30am 26.0 - - - - SE 9 - 5 - 1015.0 - -
28/09:00am 26.0 - - - - ESE 9 - 5 - 1015.0 1015.6 -
28/08:30am 27.0 - - - - E 11 - 6 - 1015.0 - -
28/08:00am 26.4 - - - - E 11 - 6 - 1015.0 1015.4 -
28/07:30am 26.0 - - - - ENE 11 - 6 - 1015.0 - -
28/07:00am 25.3 - - - - ENE 13 - 7 - 1015.0 1015.1 -
28/06:30am 25.0 - - - - E 13 - 7 - 1014.0 - -
28/06:00am 24.4 - - - - ENE 15 - 8 - 1014.0 1014.5 -
28/05:30am 25.0 - - - - ENE 13 - 7 - 1014.0 - -
28/05:00am 24.5 - - - - ENE 15 - 8 - 1014.0 1013.9 -
28/04:30am 25.0 - - - - NE 19 - 10 - 1013.0 - -
28/04:00am 24.7 - - - - NE 17 - 9 - 1013.0 1013.6 -
28/03:30am 25.0 - - - - NNE 19 - 10 - 1013.0 - -
28/03:00am 24.7 - - - - NE 15 - 8 - 1013.0 1013.7 -
28/02:30am 25.0 - - - - NE 20 - 11 - 1014.0 - -
28/02:00am 25.2 - - - - NE 20 - 11 - 1014.0 1014.0 -
28/01:30am 25.0 - - - - E 22 - 12 - 1014.0 - -
28/01:00am 25.4 - - - - E 20 - 11 - 1014.0 1014.0 -
28/12:30am 26.0 - - - - ENE 20 - 11 - 1014.0 - -
28/12:00am 25.6 - - - - E 20 24 11 13 1014.0 1014.2 -
 
Date/Time
WST
Temp
°C
App
Temp
°C
Dew
Point
Rel
Hum
%
Delta-T
°C
Wind Press
QNH
hPa
Press
MSL
hPa
Rain
since 9 am
mm
Dir
 
Spd
km/h
Gust
km/h
Spd
kts
Gust
kts
27/11:30pm 26.0 - - - - E 19 - 10 - 1014.0 - -
27/11:00pm 25.5 - - - - E 17 - 9 - 1014.0 1014.5 -
27/10:30pm 25.0 - - - - ESE 15 - 8 - 1014.0 - -
27/10:00pm 25.3 - - - - SE 17 - 9 - 1014.0 1014.7 -
27/09:30pm 26.0 - - - - SSE 15 - 8 - 1014.0 - -
27/09:00pm 25.6 - - - - SSE 11 - 6 - 1014.0 1014.7 -
27/08:30pm 26.0 - - - - S 11 - 6 - 1014.0 - -
27/08:00pm 25.7 - - - - S 11 - 6 - 1014.0 1014.5 -
27/07:30pm 26.0 - - - - S 13 - 7 - 1014.0 - -
27/07:00pm 25.4 - - - - S 15 - 8 - 1013.0 1013.6 -
27/06:30pm 26.0 - - - - SSE 17 - 9 - 1013.0 - -
27/06:00pm 25.7 - - - - SSE 17 - 9 - 1013.0 1012.9 -
27/05:30pm 26.0 - - - - SSE 15 - 8 - 1012.0 - -
27/05:00pm 25.9 - - - - SSE 17 - 9 - 1012.0 1012.4 -
27/04:30pm 26.0 - - - - ESE 15 - 8 - 1012.0 - -
27/04:00pm 26.5 - - - - ESE 17 - 9 - 1012.0 1012.3 -
27/03:30pm 28.0 - - - - ESE 17 - 9 - 1012.0 - -
27/03:00pm 27.4 - - - - ESE 17 - 9 - 1012.0 1012.3 -
27/02:30pm 28.0 - - - - E 19 - 10 - 1012.0 - -
27/02:00pm 27.1 - - - - ESE 20 - 11 - 1012.0 1012.6 -
27/01:30pm 27.0 - - - - ESE 22 - 12 - 1013.0 - -
27/01:00pm 27.5 - - - - ESE 24 - 13 - 1013.0 1013.2 -
27/12:30pm 27.0 - - - - ESE 24 - 13 - 1013.0 - -
27/12:00pm 27.6 - - - - ESE 22 - 12 - 1014.0 1013.9 -
27/11:30am 27.0 - - - - ESE 20 - 11 - 1014.0 - -
27/11:00am 27.2 - - - - ESE 20 - 11 - 1014.0 1014.4 -
27/10:30am 27.0 - - - - ESE 17 - 9 - 1014.0 - -
27/10:00am 27.2 - - - - SE 13 - 7 - 1014.0 1014.5 -
27/09:30am 27.0 - - - - ESE 13 - 7 - 1015.0 - -
27/09:00am 26.8 - - - - ESE 17 - 9 - 1015.0 1015.1 -
27/08:30am 27.0 - - - - ESE 17 - 9 - 1015.0 - -
27/08:00am 26.3 - - - - E 15 - 8 - 1015.0 1015.1 -
27/07:30am 26.0 - - - - E 15 - 8 - 1015.0 - -
27/07:00am 26.0 - - - - E 15 - 8 - 1014.0 1014.7 -
27/06:30am 26.0 - - - - ENE 15 - 8 - 1014.0 - -
27/06:00am 25.2 - - - - ENE 15 - 8 - 1014.0 1014.0 -
27/05:30am 25.0 - - - - E 13 - 7 - 1014.0 - -
27/05:00am 25.3 - - - - ENE 15 - 8 - 1013.0 1013.5 -
27/04:30am 25.0 - - - - ENE 15 - 8 - 1013.0 - -
27/04:00am 25.5 - - - - ENE 15 - 8 - 1013.0 1013.0 -
27/03:30am 25.0 - - - - ENE 17 - 9 - 1013.0 - -
27/03:00am 25.5 - - - - ENE 19 - 10 - 1013.0 1013.1 -
27/02:30am 25.0 - - - - ENE 19 - 10 - 1013.0 - -
27/02:00am 25.5 - - - - ENE 22 - 12 - 1013.0 1013.4 -
27/01:30am 26.0 - - - - NE 20 - 11 - 1013.0 - -
27/01:00am 25.5 - - - - NE 20 - 11 - 1014.0 1014.2 -
27/12:30am 26.0 - - - - NE 20 - 11 - 1014.0 - -
27/12:00am 25.9 - - - - NE 20 - 11 - 1014.0 1014.6 -
 
Date/Time
WST
Temp
°C
App
Temp
°C
Dew
Point
Rel
Hum
%
Delta-T
°C
Wind Press
QNH
hPa
Press
MSL
hPa
Rain
since 9 am
mm
Dir
 
Spd
km/h
Gust
km/h
Spd
kts
Gust
kts
26/11:30pm 26.0 - - - - NE 19 - 10 - 1014.0 - -
26/11:00pm 25.9 - - - - NE 17 - 9 - 1014.0 1014.7 -
26/10:30pm 26.0 - - - - NE 19 - 10 - 1014.0 - -
26/10:00pm 26.1 - - - - NE 20 - 11 - 1014.0 1014.6 -
26/09:30pm 26.0 - - - - NE 17 - 9 - 1014.0 - -
26/09:00pm 26.1 - - - - NE 19 - 10 - 1014.0 1014.5 -
26/08:30pm 26.0 - - - - NE 20 - 11 - 1014.0 - -
26/08:00pm 25.9 - - - - NE 20 - 11 - 1014.0 1014.2 -
26/07:30pm 26.0 - - - - NE 22 - 12 - 1014.0 - -
26/07:00pm 25.9 - - - - ENE 22 - 12 - 1013.0 1013.7 -
26/06:30pm 26.0 - - - - NE 20 - 11 - 1013.0 - -
26/06:00pm 25.9 - - - - ENE 19 - 10 - 1013.0 1013.0 -
26/05:30pm 26.0 - - - - ENE 19 - 10 - 1012.0 - -
26/05:00pm 26.4 - - - - E 19 - 10 - 1012.0 1012.5 -
26/04:30pm 27.0 - - - - E 20 - 11 - 1012.0 - -
26/04:00pm 27.0 - - - - E 24 - 13 - 1012.0 1012.4 -
26/03:30pm 27.0 - - - - E 26 - 14 - 1012.0 - -
26/03:00pm 27.1 - - - - ENE 22 - 12 - 1012.0 1012.5 -
26/02:30pm 27.0 - - - - E 26 - 14 - 1012.0 - -
26/02:00pm 27.4 - - - - E 26 - 14 - 1013.0 1012.9 -
26/01:30pm 28.0 - - - - E 26 - 14 - 1013.0 - -
26/01:00pm 28.1 - - - - E 24 - 13 - 1013.0 1013.6 -
26/12:30pm 28.0 - - - - E 26 - 14 - 1014.0 - -
26/12:00pm 27.1 - - - - ESE 26 - 14 - 1014.0 1014.5 -
26/11:30am 27.0 - - - - ESE 26 - 14 - 1015.0 - -
26/11:00am 26.7 - - - - ESE 28 - 15 - 1015.0 1015.4 -
26/10:30am 27.0 - - - - ESE 28 - 15 - 1015.0 - -
26/10:00am 26.5 - - - - SE 30 - 16 - 1016.0 1015.9 -
26/09:30am 26.0 - - - - SE 24 - 13 - 1016.0 - -
26/09:00am 26.3 - - - - SSE 22 - 12 - 1016.0 1015.9 -
26/08:30am 27.0 - - - - ESE 19 - 10 - 1016.0 - -
26/08:00am 26.5 - - - - E 19 - 10 - 1015.0 1015.8 -
26/07:30am 26.0 - - - - E 17 - 9 - 1015.0 - -
26/07:00am 25.7 - - - - E 15 - 8 - 1015.0 1015.3 -
26/06:30am 25.0 - - - - ESE 13 - 7 - 1015.0 - -
26/06:00am 24.8 - - - - E 13 - 7 - 1014.0 1014.6 -
26/05:30am 25.0 - - - - ESE 11 - 6 - 1014.0 - -
26/05:00am 25.1 - - - - ESE 9 - 5 - 1014.0 1014.1 -
26/04:30am 25.0 - - - - ESE 9 - 5 - 1014.0 - -
26/04:00am 25.1 - - - - SE 11 - 6 - 1014.0 1014.0 -
26/03:30am 25.0 - - - - ESE 6 - 3 - 1014.0 - -
26/03:00am 25.1 - - - - ENE 2 - 1 - 1014.0 1013.9 -
26/02:30am 25.0 - - - - NE 7 - 4 - 1014.0 - -
26/02:00am 25.3 - - - - E 6 - 3 - 1014.0 1014.3 -
26/01:30am 25.0 - - - - NE 13 - 7 - 1014.0 - -
26/01:00am 25.3 - - - - ENE 11 - 6 - 1014.0 1014.8 -
26/12:30am 25.0 - - - - ENE 13 - 7 - 1015.0 - -
26/12:00am 25.4 - - - - ENE 13 - 7 - 1015.0 1015.1 -
 
Date/Time
WST
Temp
°C
App
Temp
°C
Dew
Point
Rel
Hum
%
Delta-T
°C
Wind Press
QNH
hPa
Press
MSL
hPa
Rain
since 9 am
mm
Dir
 
Spd
km/h
Gust
km/h
Spd
kts
Gust
kts
25/11:30pm 25.0 - - - - ENE 13 - 7 - 1015.0 - -
25/11:00pm 25.2 - - - - ENE 13 - 7 - 1015.0 1015.4 -
25/10:30pm 25.0 - - - - E 11 - 6 - 1015.0 - -
25/10:00pm 25.2 - - - - ENE 13 - 7 - 1015.0 1015.3 -
25/09:30pm 25.0 - - - - ENE 15 - 8 - 1015.0 - -
25/09:00pm 25.6 - - - - NE 17 - 9 - 1015.0 1014.9 -
25/08:30pm 26.0 - - - - NE 15 - 8 - 1014.0 - -
25/08:00pm 25.8 - - - - NE 22 - 12 - 1014.0 1014.5 -
25/07:30pm 26.0 - - - - ENE 17 - 9 - 1014.0 - -
25/07:00pm 26.0 - - - - ENE 24 - 13 - 1014.0 1014.0 -
25/06:30pm 26.0 - - - - ENE 24 - 13 - 1013.0 - -
25/06:00pm 26.0 - - - - ENE 24 - 13 - 1013.0 1013.3 -
25/05:30pm 26.0 - - - - ENE 22 - 12 - 1013.0 - -
25/05:00pm 26.2 - - - - ENE 24 - 13 - 1013.0 1012.9 -
25/04:30pm 27.0 - - - - ENE 22 - 12 - 1012.0 - -
25/04:00pm 27.0 - - - - ENE 24 - 13 - 1012.0 1012.7 -
25/03:30pm 27.0 - - - - ENE 26 - 14 - 1012.0 - -
25/03:00pm 27.6 - - - - ENE 24 - 13 - 1012.0 1012.7 -
25/02:30pm 27.0 - - - - E 28 - 15 - 1012.0 - -
25/02:00pm 27.5 - - - - ENE 32 - 17 - 1013.0 1013.0 -
25/01:30pm 28.0 - - - - ENE 32 - 17 - 1013.0 - -
25/01:00pm 27.6 - - - - E 33 - 18 - 1013.0 1013.4 -
25/12:30pm 28.0 - - - - E 28 - 15 - 1013.0 - -
25/12:00pm 28.0 - - - - E 28 - 15 - 1014.0 1014.4 -
25/11:30am 28.0 - - - - ESE 30 - 16 - 1015.0 - -
25/11:00am 28.2 - - - - ESE 28 - 15 - 1015.0 1015.4 -

Other Formats:

Comma delimited format used in spreadsheet applications
http://www.bom.gov.au/fwo/IDW60801/IDW60801.94103.axf

JavaScript Object Notation format (JSON) in row-major order
http://www.bom.gov.au/fwo/IDW60801/IDW60801.94103.json